createdAt,value
2019-05-17T00:00:57.516Z,84.89
2019-05-17T00:05:52.315Z,84.96
2019-05-17T00:10:46.913Z,85.71
2019-05-17T00:15:42.115Z,85.81
2019-05-17T00:20:37.511Z,86.40
2019-05-17T00:25:32.270Z,85.33
2019-05-17T00:30:26.918Z,85.26
2019-05-17T00:35:21.550Z,85.96
2019-05-17T00:40:16.955Z,85.56
2019-05-17T00:45:12.054Z,85.40
2019-05-17T00:50:10.023Z,85.75
2019-05-17T00:55:06.980Z,85.91
2019-05-17T01:00:01.555Z,86.09
2019-05-17T01:04:56.816Z,85.71
2019-05-17T01:09:51.759Z,86.61
2019-05-17T01:14:46.746Z,86.94
2019-05-17T01:19:41.644Z,87.02
2019-05-17T01:24:36.842Z,87.41
2019-05-17T01:29:31.764Z,87.93
2019-05-17T01:34:27.263Z,87.93
2019-05-17T01:39:22.146Z,87.75
2019-05-17T01:44:16.916Z,88.17
2019-05-17T01:49:11.509Z,88.03
2019-05-17T01:54:06.815Z,87.88
2019-05-17T01:59:01.574Z,87.41
2019-05-17T02:03:57.484Z,86.86
2019-05-17T02:08:52.839Z,86.82
2019-05-17T02:13:47.597Z,86.86
2019-05-17T02:18:42.192Z,87.41
2019-05-17T02:23:37.339Z,88.14
2019-05-17T02:28:32.220Z,88.15
2019-05-17T02:33:27.864Z,88.57
2019-05-17T02:38:22.632Z,88.48
2019-05-17T02:43:17.188Z,88.21
2019-05-17T02:48:13.406Z,87.33
2019-05-17T02:53:08.178Z,88.21
2019-05-17T02:58:03.690Z,89.12
2019-05-17T03:02:58.758Z,89.65
2019-05-17T03:07:53.392Z,90.32
2019-05-17T03:12:47.980Z,90.46
2019-05-17T03:17:43.812Z,90.78
2019-05-17T03:22:38.753Z,91.18
2019-05-17T03:27:33.867Z,91.86
2019-05-17T03:32:35.465Z,91.08
2019-05-17T03:37:32.539Z,89.68
2019-05-17T03:42:22.747Z,89.50
2019-05-17T03:47:17.434Z,88.82
2019-05-17T03:52:13.532Z,88.38
2019-05-17T03:57:08.353Z,88.21
2019-05-17T04:02:03.468Z,88.42
2019-05-17T04:06:58.295Z,89.10
2019-05-17T04:11:53.651Z,90.12
2019-05-17T04:16:48.551Z,86.52
2019-05-17T04:21:43.312Z,83.31
2019-05-17T04:26:37.908Z,79.05
2019-05-17T04:31:34.643Z,75.88
2019-05-17T04:36:28.822Z,73.85
2019-05-17T04:41:39.616Z,69.11
2019-05-17T04:46:23.344Z,65.39
2019-05-17T04:51:16.080Z,61.79
2019-05-17T04:56:13.686Z,59.89
2019-05-17T05:01:07.069Z,59.67
2019-05-17T05:06:02.991Z,58.57
2019-05-17T05:10:58.158Z,56.23
2019-05-17T05:15:52.755Z,53.21
2019-05-17T05:20:47.358Z,51.36
2019-05-17T05:25:43.021Z,51.21
2019-05-17T05:30:38.065Z,50.83
2019-05-17T05:35:32.804Z,50.34
2019-05-17T05:40:27.383Z,49.56
2019-05-17T05:45:23.878Z,49.05
2019-05-17T05:50:21.816Z,48.78
2019-05-17T05:55:16.266Z,47.28
2019-05-17T06:00:14.556Z,48.12
2019-05-17T06:05:09.367Z,47.83
2019-05-17T06:10:05.016Z,48.28
2019-05-17T06:14:59.619Z,47.70
2019-05-17T06:19:54.250Z,47.48
2019-05-17T06:24:48.856Z,49.79
2019-05-17T06:29:43.498Z,50.84
2019-05-17T06:34:42.070Z,51.55
2019-05-17T06:39:36.148Z,51.48
2019-05-17T06:44:32.502Z,50.20
2019-05-17T06:49:27.440Z,50.10
2019-05-17T06:54:22.071Z,52.94
2019-05-17T06:59:17.856Z,54.44
2019-05-17T07:04:13.244Z,54.23
2019-05-17T07:09:09.882Z,53.32
2019-05-17T07:14:06.150Z,52.14
2019-05-17T07:19:00.730Z,52.18
2019-05-17T07:23:55.405Z,52.48
2019-05-17T07:28:50.223Z,52.55
2019-05-17T07:33:45.045Z,54.25
2019-05-17T07:38:39.801Z,54.25
2019-05-17T07:43:40.306Z,53.16
2019-05-17T07:48:36.908Z,52.39
2019-05-17T07:53:32.821Z,52.21
2019-05-17T07:58:29.883Z,53.32
2019-05-17T08:03:25.147Z,52.90
2019-05-17T08:08:20.812Z,52.33
2019-05-17T08:13:27.366Z,52.60
2019-05-17T08:18:15.376Z,51.95
2019-05-17T08:23:11.539Z,52.07
2019-05-17T08:28:06.149Z,51.46
2019-05-17T08:33:01.005Z,52.17
2019-05-17T08:37:55.660Z,51.13
2019-05-17T08:42:50.345Z,51.33
2019-05-17T08:47:45.073Z,50.62
2019-05-17T08:52:40.387Z,50.39
2019-05-17T08:57:35.092Z,50.73
2019-05-17T09:02:29.952Z,50.86
2019-05-17T09:07:24.978Z,50.35
2019-05-17T09:12:20.672Z,51.46
2019-05-17T09:17:15.426Z,51.50
2019-05-17T09:22:10.473Z,50.90
2019-05-17T09:27:11.819Z,50.98
2019-05-17T09:32:09.528Z,49.04
2019-05-17T09:37:03.970Z,48.05
2019-05-17T09:41:59.564Z,47.30
2019-05-17T09:46:54.349Z,46.11
2019-05-17T09:51:49.673Z,46.11
2019-05-17T09:56:49.716Z,44.50
2019-05-17T10:01:44.348Z,43.82
2019-05-17T10:06:40.070Z,43.54
2019-05-17T10:11:35.563Z,43.04
2019-05-17T10:16:30.743Z,42.77
2019-05-17T10:21:25.971Z,42.06
2019-05-17T10:26:21.701Z,42.30
2019-05-17T10:31:19.707Z,41.39
2019-05-17T10:36:14.377Z,41.72
2019-05-17T10:41:10.142Z,41.00
2019-05-17T10:46:05.408Z,40.37
2019-05-17T10:51:00.575Z,41.32
2019-05-17T10:55:55.471Z,40.65
2019-05-17T11:00:50.324Z,40.14
2019-05-17T11:05:45.004Z,38.96
2019-05-17T11:10:39.713Z,37.11
2019-05-17T11:15:34.324Z,35.98
2019-05-17T11:20:30.253Z,36.71
2019-05-17T11:25:24.917Z,35.85
2019-05-17T11:30:19.898Z,36.46
2019-05-17T11:35:14.654Z,35.37
2019-05-17T11:40:10.485Z,35.41
2019-05-17T11:45:05.771Z,35.66
2019-05-17T11:50:00.384Z,33.18
2019-05-17T11:54:55.066Z,34.36
2019-05-17T11:59:49.906Z,34.99
2019-05-17T12:04:44.521Z,34.03
2019-05-17T12:09:39.114Z,32.66
2019-05-17T12:14:33.701Z,32.86
2019-05-17T12:19:28.436Z,32.54
2019-05-17T12:24:23.097Z,30.88
2019-05-17T12:29:17.689Z,30.83
2019-05-17T12:34:12.319Z,31.28
2019-05-17T12:39:07.871Z,31.33
2019-05-17T12:44:02.497Z,31.08
2019-05-17T12:49:02.905Z,30.11
2019-05-17T12:53:57.808Z,29.58
2019-05-17T12:58:57.491Z,28.90
2019-05-17T13:03:52.132Z,28.19
2019-05-17T13:08:47.503Z,29.53
2019-05-17T13:13:42.144Z,30.21
2019-05-17T13:18:36.748Z,29.62
2019-05-17T13:23:31.376Z,30.34
2019-05-17T13:28:25.993Z,30.05
2019-05-17T13:33:20.684Z,29.75
2019-05-17T13:38:15.290Z,30.28
2019-05-17T13:43:09.991Z,30.39
2019-05-17T13:48:04.655Z,29.18
2019-05-17T13:52:59.787Z,28.49
2019-05-17T13:57:54.389Z,27.89
2019-05-17T14:02:49.244Z,27.04
2019-05-17T14:07:43.828Z,28.10
2019-05-17T14:12:38.500Z,27.08
2019-05-17T14:17:33.580Z,25.85
2019-05-17T14:22:28.200Z,25.65
2019-05-17T14:27:22.800Z,26.27
2019-05-17T14:32:17.414Z,27.33
2019-05-17T14:37:12.461Z,27.32
2019-05-17T14:42:07.145Z,27.72
2019-05-17T14:47:01.845Z,27.22
2019-05-17T14:51:56.441Z,27.55
2019-05-17T14:56:51.043Z,27.31
2019-05-17T15:01:45.638Z,27.56
2019-05-17T15:06:40.231Z,27.03
2019-05-17T15:11:34.971Z,27.14
2019-05-17T15:16:29.621Z,27.68
2019-05-17T15:21:24.259Z,27.82
2019-05-17T15:26:19.118Z,27.58
2019-05-17T15:31:13.730Z,28.19
2019-05-17T15:36:08.407Z,28.48
2019-05-17T15:41:03.186Z,28.58
2019-05-17T15:45:57.759Z,27.80
2019-05-17T15:50:52.441Z,27.74
2019-05-17T15:55:47.119Z,28.13
2019-05-17T16:00:41.853Z,28.16
2019-05-17T16:05:36.526Z,28.18
2019-05-17T16:10:31.124Z,28.11
2019-05-17T16:15:25.716Z,28.77
2019-05-17T16:20:20.549Z,28.94
2019-05-17T16:25:15.349Z,29.19
2019-05-17T16:30:10.886Z,30.46
2019-05-17T16:35:07.056Z,30.74
2019-05-17T16:40:01.663Z,31.46
2019-05-17T16:44:56.358Z,31.05
2019-05-17T16:49:51.062Z,30.86
2019-05-17T16:54:45.645Z,29.86
2019-05-17T16:59:40.257Z,30.61
2019-05-17T17:04:34.862Z,30.57
2019-05-17T17:09:29.758Z,30.67
2019-05-17T17:14:24.438Z,30.87
2019-05-17T17:19:19.171Z,31.30
2019-05-17T17:24:13.758Z,34.82
2019-05-17T17:29:08.428Z,38.57
2019-05-17T17:34:03.039Z,38.67
2019-05-17T17:38:57.608Z,38.87
2019-05-17T17:43:58.674Z,38.59
2019-05-17T17:48:48.584Z,37.18
2019-05-17T17:53:43.187Z,36.67
2019-05-17T17:58:37.790Z,39.50
2019-05-17T18:03:32.363Z,40.58
2019-05-17T18:08:27.038Z,40.31
2019-05-17T18:13:21.644Z,41.54
2019-05-17T18:18:16.331Z,42.49
2019-05-17T18:23:11.096Z,42.54
2019-05-17T18:28:06.971Z,42.65
2019-05-17T18:33:01.700Z,43.78
2019-05-17T18:37:56.367Z,43.96
2019-05-17T18:42:51.102Z,46.55
2019-05-17T18:47:45.834Z,45.50
2019-05-17T18:52:41.817Z,46.10
2019-05-17T18:57:36.739Z,46.97
2019-05-17T19:02:31.409Z,47.73
2019-05-17T19:07:26.059Z,48.91
2019-05-17T19:12:20.663Z,49.54
2019-05-17T19:17:15.264Z,50.68
2019-05-17T19:22:09.867Z,52.16
2019-05-17T19:27:04.519Z,53.50
2019-05-17T19:31:59.130Z,53.94
2019-05-17T19:36:53.724Z,53.99
2019-05-17T19:41:48.364Z,53.94
2019-05-17T19:46:42.959Z,54.18
2019-05-17T19:51:37.545Z,54.47
2019-05-17T19:56:32.187Z,54.52
2019-05-17T20:01:26.813Z,55.60
2019-05-17T20:06:21.647Z,56.37
2019-05-17T20:11:16.231Z,58.29
2019-05-17T20:16:10.827Z,60.43
2019-05-17T20:21:05.520Z,63.04
2019-05-17T20:26:00.108Z,63.46
2019-05-17T20:30:54.755Z,64.36
2019-05-17T20:35:49.427Z,64.83
2019-05-17T20:40:45.117Z,64.88
2019-05-17T20:45:39.719Z,64.87
2019-05-17T20:50:34.310Z,65.51
2019-05-17T20:55:28.902Z,66.18
2019-05-17T21:00:24.376Z,66.21
2019-05-17T21:05:19.406Z,66.49
2019-05-17T21:10:14.296Z,68.31
2019-05-17T21:15:09.912Z,69.58
2019-05-17T21:20:06.706Z,70.24
2019-05-17T21:25:01.347Z,71.54
2019-05-17T21:29:56.128Z,71.59
2019-05-17T21:34:50.723Z,71.46
2019-05-17T21:39:45.315Z,72.00
2019-05-17T21:44:39.983Z,72.06
2019-05-17T21:49:34.592Z,71.65
2019-05-17T21:54:29.193Z,71.80
2019-05-17T21:59:23.771Z,70.85
2019-05-17T22:04:18.377Z,70.66
2019-05-17T22:09:13.207Z,70.96
2019-05-17T22:14:07.790Z,71.46
2019-05-17T22:19:02.391Z,71.44
2019-05-17T22:23:57.003Z,71.37
2019-05-17T22:28:51.652Z,71.53
2019-05-17T22:33:46.293Z,71.03
2019-05-17T22:38:40.884Z,71.09
2019-05-17T22:43:35.486Z,71.58
2019-05-17T22:48:30.065Z,72.20
2019-05-17T22:53:24.699Z,72.78
2019-05-17T22:58:19.346Z,73.13
2019-05-17T23:03:13.956Z,73.57
2019-05-17T23:08:08.531Z,73.65
2019-05-17T23:13:03.224Z,74.07
2019-05-17T23:17:57.925Z,74.58
2019-05-17T23:22:52.523Z,73.72
2019-05-17T23:27:47.105Z,73.98
2019-05-17T23:32:41.704Z,73.37
2019-05-17T23:37:36.314Z,73.07
2019-05-17T23:42:30.924Z,73.74
2019-05-17T23:47:25.505Z,73.75
2019-05-17T23:52:20.098Z,74.84
2019-05-17T23:57:14.708Z,76.05
